sensor_id;sensor_type;location;lat;lon;timestamp;temperature;humidity
6627;DHT22;3349;49.830;8.748;2023-03-01T00:02:15;-0.90;62.00
6627;DHT22;3349;49.830;8.748;2023-03-01T00:04:42;-0.90;62.40
6627;DHT22;3349;49.830;8.748;2023-03-01T00:07:10;-0.90;62.40
6627;DHT22;3349;49.830;8.748;2023-03-01T00:09:37;-0.90;62.30
6627;DHT22;3349;49.830;8.748;2023-03-01T00:12:06;-0.90;62.20
6627;DHT22;3349;49.830;8.748;2023-03-01T00:14:33;-0.80;62.70
6627;DHT22;3349;49.830;8.748;2023-03-01T00:16:59;-0.80;62.40
6627;DHT22;3349;49.830;8.748;2023-03-01T00:19:27;-0.80;62.60
6627;DHT22;3349;49.830;8.748;2023-03-01T00:21:54;-0.80;63.40
6627;DHT22;3349;49.830;8.748;2023-03-01T00:24:22;-0.70;62.70
6627;DHT22;3349;49.830;8.748;2023-03-01T00:26:48;-0.70;62.30
6627;DHT22;3349;49.830;8.748;2023-03-01T00:29:18;-0.80;62.10
6627;DHT22;3349;49.830;8.748;2023-03-01T00:31:45;-0.80;62.20
6627;DHT22;3349;49.830;8.748;2023-03-01T00:34:12;-0.80;62.20
6627;DHT22;3349;49.830;8.748;2023-03-01T00:36:38;-0.80;62.60
6627;DHT22;3349;49.830;8.748;2023-03-01T00:39:09;-0.90;62.30
6627;DHT22;3349;49.830;8.748;2023-03-01T00:41:53;-0.80;62.60
6627;DHT22;3349;49.830;8.748;2023-03-01T00:44:20;-0.80;62.70
6627;DHT22;3349;49.830;8.748;2023-03-01T00:46:46;-0.80;62.20
6627;DHT22;3349;49.830;8.748;2023-03-01T00:49:13;-0.80;62.60
6627;DHT22;3349;49.830;8.748;2023-03-01T00:51:40;-0.90;62.50
6627;DHT22;3349;49.830;8.748;2023-03-01T00:54:08;-1.00;62.60
6627;DHT22;3349;49.830;8.748;2023-03-01T00:56:35;-1.00;63.30
6627;DHT22;3349;49.830;8.748;2023-03-01T00:59:03;-1.10;63.00
6627;DHT22;3349;49.830;8.748;2023-03-01T01:01:30;-1.10;63.80
6627;DHT22;3349;49.830;8.748;2023-03-01T01:04:00;-1.20;63.50
6627;DHT22;3349;49.830;8.748;2023-03-01T01:06:29;-1.20;64.60
6627;DHT22;3349;49.830;8.748;2023-03-01T01:08:56;-1.20;64.60
6627;DHT22;3349;49.830;8.748;2023-03-01T01:11:25;-1.30;64.50
6627;DHT22;3349;49.830;8.748;2023-03-01T01:13:53;-1.30;64.50
6627;DHT22;3349;49.830;8.748;2023-03-01T01:16:23;-1.40;65.00
6627;DHT22;3349;49.830;8.748;2023-03-01T01:18:50;-1.40;65.00
6627;DHT22;3349;49.830;8.748;2023-03-01T01:21:22;-1.50;65.50
6627;DHT22;3349;49.830;8.748;2023-03-01T01:23:49;-1.60;65.80
6627;DHT22;3349;49.830;8.748;2023-03-01T01:26:18;-1.60;66.70
6627;DHT22;3349;49.830;8.748;2023-03-01T01:28:46;-1.60;67.60
6627;DHT22;3349;49.830;8.748;2023-03-01T01:31:13;-1.60;67.60
6627;DHT22;3349;49.830;8.748;2023-03-01T01:33:42;-1.60;67.70
6627;DHT22;3349;49.830;8.748;2023-03-01T01:36:08;-1.70;67.80
6627;DHT22;3349;49.830;8.748;2023-03-01T01:38:37;-1.70;68.20
6627;DHT22;3349;49.830;8.748;2023-03-01T01:41:04;-1.60;68.70
6627;DHT22;3349;49.830;8.748;2023-03-01T01:43:35;-1.60;68.90
6627;DHT22;3349;49.830;8.748;2023-03-01T01:46:04;-1.60;69.00
6627;DHT22;3349;49.830;8.748;2023-03-01T01:48:38;-1.60;70.50
6627;DHT22;3349;49.830;8.748;2023-03-01T01:51:12;-1.50;69.50
6627;DHT22;3349;49.830;8.748;2023-03-01T01:53:39;-1.50;69.90
6627;DHT22;3349;49.830;8.748;2023-03-01T01:56:09;-1.50;69.50
6627;DHT22;3349;49.830;8.748;2023-03-01T01:58:37;-1.50;69.60
6627;DHT22;3349;49.830;8.748;2023-03-01T02:01:05;-1.40;70.00
6627;DHT22;3349;49.830;8.748;2023-03-01T02:03:33;-1.40;69.90
6627;DHT22;3349;49.830;8.748;2023-03-01T02:06:05;-1.40;69.90
6627;DHT22;3349;49.830;8.748;2023-03-01T02:08:37;-1.40;69.60
6627;DHT22;3349;49.830;8.748;2023-03-01T02:11:05;-1.30;70.00
6627;DHT22;3349;49.830;8.748;2023-03-01T02:13:33;-1.30;69.70
6627;DHT22;3349;49.830;8.748;2023-03-01T02:16:03;-1.30;69.30
6627;DHT22;3349;49.830;8.748;2023-03-01T02:18:29;-1.30;69.00
6627;DHT22;3349;49.830;8.748;2023-03-01T02:21:06;-1.30;69.60
6627;DHT22;3349;49.830;8.748;2023-03-01T02:23:36;-1.30;69.30
6627;DHT22;3349;49.830;8.748;2023-03-01T02:26:06;-1.30;69.00
6627;DHT22;3349;49.830;8.748;2023-03-01T02:28:36;-1.30;69.40
6627;DHT22;3349;49.830;8.748;2023-03-01T02:31:05;-1.30;68.50
6627;DHT22;3349;49.830;8.748;2023-03-01T02:33:49;-1.30;68.70
6627;DHT22;3349;49.830;8.748;2023-03-01T02:36:19;-1.30;68.50
6627;DHT22;3349;49.830;8.748;2023-03-01T02:38:47;-1.30;68.90
6627;DHT22;3349;49.830;8.748;2023-03-01T02:41:16;-1.30;69.20
6627;DHT22;3349;49.830;8.748;2023-03-01T02:43:45;-1.30;68.50
6627;DHT22;3349;49.830;8.748;2023-03-01T02:46:16;-1.30;68.90
6627;DHT22;3349;49.830;8.748;2023-03-01T02:48:45;-1.40;68.60
6627;DHT22;3349;49.830;8.748;2023-03-01T02:51:31;-1.40;68.80
6627;DHT22;3349;49.830;8.748;2023-03-01T02:54:09;-1.30;69.40
6627;DHT22;3349;49.830;8.748;2023-03-01T02:56:38;-1.30;69.40
6627;DHT22;3349;49.830;8.748;2023-03-01T02:59:07;-1.30;69.60
6627;DHT22;3349;49.830;8.748;2023-03-01T03:01:35;-1.30;69.70
6627;DHT22;3349;49.830;8.748;2023-03-01T03:04:04;-1.30;69.60
6627;DHT22;3349;49.830;8.748;2023-03-01T03:06:31;-1.30;69.50
6627;DHT22;3349;49.830;8.748;2023-03-01T03:08:58;-1.20;70.20
6627;DHT22;3349;49.830;8.748;2023-03-01T03:11:25;-1.20;70.10
6627;DHT22;3349;49.830;8.748;2023-03-01T03:13:52;-1.20;70.00
6627;DHT22;3349;49.830;8.748;2023-03-01T03:16:21;-1.30;69.60
6627;DHT22;3349;49.830;8.748;2023-03-01T03:18:48;-1.30;69.60
6627;DHT22;3349;49.830;8.748;2023-03-01T03:21:15;-1.30;69.50
6627;DHT22;3349;49.830;8.748;2023-03-01T03:23:42;-1.20;70.50
6627;DHT22;3349;49.830;8.748;2023-03-01T03:26:10;-1.20;70.10
6627;DHT22;3349;49.830;8.748;2023-03-01T03:28:39;-1.30;69.60
6627;DHT22;3349;49.830;8.748;2023-03-01T03:31:06;-1.30;69.50
6627;DHT22;3349;49.830;8.748;2023-03-01T03:33:35;-1.30;69.70
6627;DHT22;3349;49.830;8.748;2023-03-01T03:36:02;-1.30;69.90
6627;DHT22;3349;49.830;8.748;2023-03-01T03:38:29;-1.30;69.80
6627;DHT22;3349;49.830;8.748;2023-03-01T03:41:00;-1.40;69.90
6627;DHT22;3349;49.830;8.748;2023-03-01T03:43:27;-1.40;69.90
6627;DHT22;3349;49.830;8.748;2023-03-01T03:45:55;-1.40;70.30
6627;DHT22;3349;49.830;8.748;2023-03-01T03:48:23;-1.50;70.70
6627;DHT22;3349;49.830;8.748;2023-03-01T03:50:53;-1.40;71.20
6627;DHT22;3349;49.830;8.748;2023-03-01T03:53:21;-1.50;70.80
6627;DHT22;3349;49.830;8.748;2023-03-01T03:55:48;-1.50;70.60
6627;DHT22;3349;49.830;8.748;2023-03-01T03:58:18;-1.60;70.70
6627;DHT22;3349;49.830;8.748;2023-03-01T04:00:47;-1.60;71.10
6627;DHT22;3349;49.830;8.748;2023-03-01T04:03:16;-1.60;71.90
6627;DHT22;3349;49.830;8.748;2023-03-01T04:05:44;-1.60;72.10
6627;DHT22;3349;49.830;8.748;2023-03-01T04:08:12;-1.60;72.80
6627;DHT22;3349;49.830;8.748;2023-03-01T04:10:42;-1.50;73.10
6627;DHT22;3349;49.830;8.748;2023-03-01T04:13:11;-1.50;73.10
6627;DHT22;3349;49.830;8.748;2023-03-01T04:15:39;-1.40;73.10
6627;DHT22;3349;49.830;8.748;2023-03-01T04:18:08;-1.40;73.80
6627;DHT22;3349;49.830;8.748;2023-03-01T04:20:35;-1.30;73.30
6627;DHT22;3349;49.830;8.748;2023-03-01T04:23:05;-1.20;73.80
6627;DHT22;3349;49.830;8.748;2023-03-01T04:25:41;-1.20;73.40
6627;DHT22;3349;49.830;8.748;2023-03-01T04:28:09;-1.10;73.40
6627;DHT22;3349;49.830;8.748;2023-03-01T04:30:37;-1.10;73.00
6627;DHT22;3349;49.830;8.748;2023-03-01T04:33:05;-1.00;72.30
6627;DHT22;3349;49.830;8.748;2023-03-01T04:35:32;-1.00;71.80
6627;DHT22;3349;49.830;8.748;2023-03-01T04:37:59;-0.90;72.20
6627;DHT22;3349;49.830;8.748;2023-03-01T04:40:26;-0.90;71.50
6627;DHT22;3349;49.830;8.748;2023-03-01T04:42:54;-0.90;71.10
6627;DHT22;3349;49.830;8.748;2023-03-01T04:45:21;-0.80;70.80
6627;DHT22;3349;49.830;8.748;2023-03-01T04:47:48;-0.80;70.00
6627;DHT22;3349;49.830;8.748;2023-03-01T04:50:16;-0.80;68.70
6627;DHT22;3349;49.830;8.748;2023-03-01T04:52:45;-0.80;68.60
6627;DHT22;3349;49.830;8.748;2023-03-01T04:55:13;-0.70;68.40
6627;DHT22;3349;49.830;8.748;2023-03-01T04:57:40;-0.70;67.80
6627;DHT22;3349;49.830;8.748;2023-03-01T05:00:11;-0.70;67.90
6627;DHT22;3349;49.830;8.748;2023-03-01T05:02:47;-0.70;67.40
6627;DHT22;3349;49.830;8.748;2023-03-01T05:05:19;-0.70;67.10
6627;DHT22;3349;49.830;8.748;2023-03-01T05:07:46;-0.70;67.40
6627;DHT22;3349;49.830;8.748;2023-03-01T05:10:13;-0.60;67.70
6627;DHT22;3349;49.830;8.748;2023-03-01T05:12:40;-0.60;67.90
6627;DHT22;3349;49.830;8.748;2023-03-01T05:15:09;-0.70;67.50
6627;DHT22;3349;49.830;8.748;2023-03-01T05:17:36;-0.70;67.70
6627;DHT22;3349;49.830;8.748;2023-03-01T05:20:03;-0.70;68.10
6627;DHT22;3349;49.830;8.748;2023-03-01T05:22:34;-0.80;68.20
6627;DHT22;3349;49.830;8.748;2023-03-01T05:25:01;-0.80;68.70
6627;DHT22;3349;49.830;8.748;2023-03-01T05:27:27;-0.90;68.80
6627;DHT22;3349;49.830;8.748;2023-03-01T05:29:55;-1.00;68.90
6627;DHT22;3349;49.830;8.748;2023-03-01T05:32:23;-1.00;69.70
6627;DHT22;3349;49.830;8.748;2023-03-01T05:34:50;-1.10;71.30
6627;DHT22;3349;49.830;8.748;2023-03-01T05:37:17;-1.10;71.40
6627;DHT22;3349;49.830;8.748;2023-03-01T05:39:44;-1.10;71.40
6627;DHT22;3349;49.830;8.748;2023-03-01T05:42:11;-1.20;71.40
6627;DHT22;3349;49.830;8.748;2023-03-01T05:44:38;-1.20;72.00
6627;DHT22;3349;49.830;8.748;2023-03-01T05:47:05;-1.30;71.70
6627;DHT22;3349;49.830;8.748;2023-03-01T05:49:33;-1.30;72.90
6627;DHT22;3349;49.830;8.748;2023-03-01T05:52:00;-1.30;73.10
6627;DHT22;3349;49.830;8.748;2023-03-01T05:54:26;-1.40;73.10
6627;DHT22;3349;49.830;8.748;2023-03-01T05:56:53;-1.50;73.10
6627;DHT22;3349;49.830;8.748;2023-03-01T05:59:20;-1.40;73.10
6627;DHT22;3349;49.830;8.748;2023-03-01T06:01:46;-1.40;74.60
6627;DHT22;3349;49.830;8.748;2023-03-01T06:04:13;-1.50;73.90
6627;DHT22;3349;49.830;8.748;2023-03-01T06:06:41;-1.50;74.40
6627;DHT22;3349;49.830;8.748;2023-03-01T06:09:08;-1.50;74.50
6627;DHT22;3349;49.830;8.748;2023-03-01T06:11:35;-1.50;74.80
6627;DHT22;3349;49.830;8.748;2023-03-01T06:14:03;-1.50;74.60
6627;DHT22;3349;49.830;8.748;2023-03-01T06:16:30;-1.50;74.90
6627;DHT22;3349;49.830;8.748;2023-03-01T06:18:56;-1.50;74.70
6627;DHT22;3349;49.830;8.748;2023-03-01T06:21:23;-1.60;74.50
6627;DHT22;3349;49.830;8.748;2023-03-01T06:23:51;-1.50;75.80
6627;DHT22;3349;49.830;8.748;2023-03-01T06:26:18;-1.50;75.50
6627;DHT22;3349;49.830;8.748;2023-03-01T06:28:45;-1.50;75.50
6627;DHT22;3349;49.830;8.748;2023-03-01T06:31:12;-1.50;75.20
6627;DHT22;3349;49.830;8.748;2023-03-01T06:33:38;-1.40;76.10
6627;DHT22;3349;49.830;8.748;2023-03-01T06:36:06;-1.40;75.60
6627;DHT22;3349;49.830;8.748;2023-03-01T06:38:33;-1.40;76.50
6627;DHT22;3349;49.830;8.748;2023-03-01T06:41:01;-1.30;75.70
6627;DHT22;3349;49.830;8.748;2023-03-01T06:43:28;-1.20;75.80
6627;DHT22;3349;49.830;8.748;2023-03-01T06:45:55;-1.10;75.70
6627;DHT22;3349;49.830;8.748;2023-03-01T06:48:22;-1.00;75.40
6627;DHT22;3349;49.830;8.748;2023-03-01T06:50:49;-1.00;74.80
6627;DHT22;3349;49.830;8.748;2023-03-01T06:53:15;-0.90;74.50
6627;DHT22;3349;49.830;8.748;2023-03-01T06:55:42;-0.80;73.90
6627;DHT22;3349;49.830;8.748;2023-03-01T06:58:10;-0.80;73.70
6627;DHT22;3349;49.830;8.748;2023-03-01T07:00:37;-0.70;73.80
6627;DHT22;3349;49.830;8.748;2023-03-01T07:03:08;-0.60;73.30
6627;DHT22;3349;49.830;8.748;2023-03-01T07:05:35;-0.60;72.10
6627;DHT22;3349;49.830;8.748;2023-03-01T07:08:02;-0.50;72.00
6627;DHT22;3349;49.830;8.748;2023-03-01T07:10:29;-0.50;70.70
6627;DHT22;3349;49.830;8.748;2023-03-01T07:12:56;-0.40;69.80
6627;DHT22;3349;49.830;8.748;2023-03-01T07:15:26;-0.30;69.20
6627;DHT22;3349;49.830;8.748;2023-03-01T07:17:54;-0.20;68.80
6627;DHT22;3349;49.830;8.748;2023-03-01T07:20:21;-0.10;67.90
6627;DHT22;3349;49.830;8.748;2023-03-01T07:22:49;-0.10;67.50
6627;DHT22;3349;49.830;8.748;2023-03-01T07:25:16;0.00;66.80
6627;DHT22;3349;49.830;8.748;2023-03-01T07:27:43;0.10;66.40
6627;DHT22;3349;49.830;8.748;2023-03-01T07:30:11;0.20;65.90
6627;DHT22;3349;49.830;8.748;2023-03-01T07:32:39;0.30;65.40
6627;DHT22;3349;49.830;8.748;2023-03-01T07:35:06;0.40;64.50
6627;DHT22;3349;49.830;8.748;2023-03-01T07:37:33;0.50;64.10
6627;DHT22;3349;49.830;8.748;2023-03-01T07:40:00;0.60;63.60
6627;DHT22;3349;49.830;8.748;2023-03-01T07:42:26;0.70;63.00
6627;DHT22;3349;49.830;8.748;2023-03-01T07:44:53;0.80;62.40
6627;DHT22;3349;49.830;8.748;2023-03-01T07:47:20;1.00;62.10
6627;DHT22;3349;49.830;8.748;2023-03-01T07:49:48;1.00;61.50
6627;DHT22;3349;49.830;8.748;2023-03-01T07:52:15;1.10;60.90
6627;DHT22;3349;49.830;8.748;2023-03-01T07:54:43;1.20;59.80
6627;DHT22;3349;49.830;8.748;2023-03-01T07:57:10;1.30;59.50
6627;DHT22;3349;49.830;8.748;2023-03-01T07:59:37;1.20;58.20
6627;DHT22;3349;49.830;8.748;2023-03-01T08:02:04;1.30;58.20
6627;DHT22;3349;49.830;8.748;2023-03-01T08:04:31;1.20;58.00
6627;DHT22;3349;49.830;8.748;2023-03-01T08:06:59;1.20;58.00
6627;DHT22;3349;49.830;8.748;2023-03-01T08:09:26;1.20;58.00
6627;DHT22;3349;49.830;8.748;2023-03-01T08:11:53;1.20;58.10
6627;DHT22;3349;49.830;8.748;2023-03-01T08:14:20;1.20;58.10
6627;DHT22;3349;49.830;8.748;2023-03-01T08:16:49;1.30;58.20
6627;DHT22;3349;49.830;8.748;2023-03-01T08:19:16;1.40;58.30
6627;DHT22;3349;49.830;8.748;2023-03-01T08:21:43;1.40;58.30
6627;DHT22;3349;49.830;8.748;2023-03-01T08:24:11;1.50;57.30
6627;DHT22;3349;49.830;8.748;2023-03-01T08:26:38;1.50;57.50
6627;DHT22;3349;49.830;8.748;2023-03-01T08:29:05;1.50;57.10
6627;DHT22;3349;49.830;8.748;2023-03-01T08:31:33;1.60;57.30
6627;DHT22;3349;49.830;8.748;2023-03-01T08:34:04;1.60;56.50
6627;DHT22;3349;49.830;8.748;2023-03-01T08:36:33;1.70;56.10
6627;DHT22;3349;49.830;8.748;2023-03-01T08:39:01;1.70;55.00
6627;DHT22;3349;49.830;8.748;2023-03-01T08:41:29;1.70;55.60
6627;DHT22;3349;49.830;8.748;2023-03-01T08:43:56;1.80;55.60
6627;DHT22;3349;49.830;8.748;2023-03-01T08:46:25;1.90;55.50
6627;DHT22;3349;49.830;8.748;2023-03-01T08:48:52;2.00;55.50
6627;DHT22;3349;49.830;8.748;2023-03-01T08:51:20;2.10;55.10
6627;DHT22;3349;49.830;8.748;2023-03-01T08:53:47;2.10;54.70
6627;DHT22;3349;49.830;8.748;2023-03-01T08:56:15;2.20;54.10
6627;DHT22;3349;49.830;8.748;2023-03-01T08:58:45;2.30;54.00
6627;DHT22;3349;49.830;8.748;2023-03-01T09:01:15;2.30;53.70
6627;DHT22;3349;49.830;8.748;2023-03-01T09:03:42;2.40;53.60
6627;DHT22;3349;49.830;8.748;2023-03-01T09:06:09;2.50;53.30
6627;DHT22;3349;49.830;8.748;2023-03-01T09:08:36;2.60;53.10
6627;DHT22;3349;49.830;8.748;2023-03-01T09:11:04;2.70;52.80
6627;DHT22;3349;49.830;8.748;2023-03-01T09:13:31;2.70;52.00
6627;DHT22;3349;49.830;8.748;2023-03-01T09:16:01;2.90;51.50
6627;DHT22;3349;49.830;8.748;2023-03-01T09:18:29;3.00;51.70
6627;DHT22;3349;49.830;8.748;2023-03-01T09:21:01;3.10;50.40
6627;DHT22;3349;49.830;8.748;2023-03-01T09:23:33;3.20;49.50
6627;DHT22;3349;49.830;8.748;2023-03-01T09:26:02;3.30;49.50
6627;DHT22;3349;49.830;8.748;2023-03-01T09:28:29;3.40;49.10
6627;DHT22;3349;49.830;8.748;2023-03-01T09:30:59;3.50;49.20
6627;DHT22;3349;49.830;8.748;2023-03-01T09:33:26;3.70;48.40
6627;DHT22;3349;49.830;8.748;2023-03-01T09:35:56;3.80;48.60
6627;DHT22;3349;49.830;8.748;2023-03-01T09:38:23;3.90;48.00
6627;DHT22;3349;49.830;8.748;2023-03-01T09:40:50;4.20;47.30
6627;DHT22;3349;49.830;8.748;2023-03-01T09:43:21;4.30;47.00
6627;DHT22;3349;49.830;8.748;2023-03-01T09:45:50;4.40;46.50
6627;DHT22;3349;49.830;8.748;2023-03-01T09:48:24;4.50;45.80
6627;DHT22;3349;49.830;8.748;2023-03-01T09:50:52;4.70;45.10
6627;DHT22;3349;49.830;8.748;2023-03-01T09:53:21;4.90;44.90
6627;DHT22;3349;49.830;8.748;2023-03-01T09:55:52;5.00;44.80
6627;DHT22;3349;49.830;8.748;2023-03-01T09:58:37;5.20;44.30
6627;DHT22;3349;49.830;8.748;2023-03-01T10:01:18;5.40;43.20
6627;DHT22;3349;49.830;8.748;2023-03-01T10:04:00;5.50;42.60
6627;DHT22;3349;49.830;8.748;2023-03-01T10:06:28;5.70;41.30
6627;DHT22;3349;49.830;8.748;2023-03-01T10:08:57;6.00;41.90
6627;DHT22;3349;49.830;8.748;2023-03-01T10:11:28;6.10;40.60
6627;DHT22;3349;49.830;8.748;2023-03-01T10:14:01;6.40;41.00
6627;DHT22;3349;49.830;8.748;2023-03-01T10:16:37;6.90;39.90
6627;DHT22;3349;49.830;8.748;2023-03-01T10:19:12;7.10;38.70
6627;DHT22;3349;49.830;8.748;2023-03-01T10:21:45;7.40;38.50
6627;DHT22;3349;49.830;8.748;2023-03-01T10:24:14;7.70;37.40
6627;DHT22;3349;49.830;8.748;2023-03-01T10:26:48;8.10;37.20
6627;DHT22;3349;49.830;8.748;2023-03-01T10:29:21;8.50;36.40
6627;DHT22;3349;49.830;8.748;2023-03-01T10:34:22;8.90;34.10
6627;DHT22;3349;49.830;8.748;2023-03-01T10:36:56;9.00;34.10
6627;DHT22;3349;49.830;8.748;2023-03-01T10:39:25;9.30;34.00
6627;DHT22;3349;49.830;8.748;2023-03-01T10:41:55;9.60;34.00
6627;DHT22;3349;49.830;8.748;2023-03-01T10:44:39;9.80;33.00
6627;DHT22;3349;49.830;8.748;2023-03-01T10:47:16;10.40;31.60
6627;DHT22;3349;49.830;8.748;2023-03-01T10:50:00;10.40;29.90
6627;DHT22;3349;49.830;8.748;2023-03-01T10:52:31;10.80;29.60
6627;DHT22;3349;49.830;8.748;2023-03-01T10:55:00;11.00;30.20
6627;DHT22;3349;49.830;8.748;2023-03-01T10:57:41;11.30;29.60
6627;DHT22;3349;49.830;8.748;2023-03-01T11:00:16;11.70;28.70
6627;DHT22;3349;49.830;8.748;2023-03-01T11:02:49;12.00;28.00
6627;DHT22;3349;49.830;8.748;2023-03-01T11:05:21;12.40;28.00
6627;DHT22;3349;49.830;8.748;2023-03-01T11:07:51;12.10;27.70
6627;DHT22;3349;49.830;8.748;2023-03-01T11:10:21;12.40;26.90
6627;DHT22;3349;49.830;8.748;2023-03-01T11:12:48;12.60;27.30
6627;DHT22;3349;49.830;8.748;2023-03-01T11:15:26;13.40;26.80
6627;DHT22;3349;49.830;8.748;2023-03-01T11:17:53;14.30;25.90
6627;DHT22;3349;49.830;8.748;2023-03-01T11:20:33;15.50;25.20
6627;DHT22;3349;49.830;8.748;2023-03-01T11:23:04;16.70;23.30
6627;DHT22;3349;49.830;8.748;2023-03-01T11:25:34;17.50;22.50
6627;DHT22;3349;49.830;8.748;2023-03-01T11:28:03;18.30;21.60
6627;DHT22;3349;49.830;8.748;2023-03-01T11:30:34;18.90;20.20
6627;DHT22;3349;49.830;8.748;2023-03-01T11:33:11;19.50;20.20
6627;DHT22;3349;49.830;8.748;2023-03-01T11:35:45;19.10;19.40
6627;DHT22;3349;49.830;8.748;2023-03-01T11:38:22;18.90;19.20
6627;DHT22;3349;49.830;8.748;2023-03-01T11:40:53;19.20;19.60
6627;DHT22;3349;49.830;8.748;2023-03-01T11:43:28;19.40;19.00
6627;DHT22;3349;49.830;8.748;2023-03-01T11:48:55;19.20;18.80
6627;DHT22;3349;49.830;8.748;2023-03-01T11:51:41;19.60;18.30
6627;DHT22;3349;49.830;8.748;2023-03-01T11:54:18;19.70;18.60
6627;DHT22;3349;49.830;8.748;2023-03-01T11:56:52;20.00;17.90
6627;DHT22;3349;49.830;8.748;2023-03-01T11:59:50;19.50;18.60
6627;DHT22;3349;49.830;8.748;2023-03-01T12:02:43;20.10;17.80
6627;DHT22;3349;49.830;8.748;2023-03-01T12:05:59;20.00;17.30
6627;DHT22;3349;49.830;8.748;2023-03-01T12:08:35;20.30;17.30
6627;DHT22;3349;49.830;8.748;2023-03-01T12:11:17;19.80;17.30
6627;DHT22;3349;49.830;8.748;2023-03-01T12:14:11;19.90;17.00
6627;DHT22;3349;49.830;8.748;2023-03-01T12:19:55;19.40;17.40
6627;DHT22;3349;49.830;8.748;2023-03-01T12:22:30;19.30;18.00
6627;DHT22;3349;49.830;8.748;2023-03-01T12:25:21;19.30;17.80
6627;DHT22;3349;49.830;8.748;2023-03-01T12:28:10;18.00;18.50
6627;DHT22;3349;49.830;8.748;2023-03-01T12:30:50;17.80;18.70
6627;DHT22;3349;49.830;8.748;2023-03-01T12:33:26;17.20;19.30
6627;DHT22;3349;49.830;8.748;2023-03-01T12:36:26;16.90;19.80
6627;DHT22;3349;49.830;8.748;2023-03-01T12:39:08;16.90;19.50
6627;DHT22;3349;49.830;8.748;2023-03-01T12:41:47;16.90;19.70
6627;DHT22;3349;49.830;8.748;2023-03-01T12:44:36;16.70;20.00
6627;DHT22;3349;49.830;8.748;2023-03-01T12:47:18;16.80;20.20
6627;DHT22;3349;49.830;8.748;2023-03-01T12:49:51;16.10;20.80
6627;DHT22;3349;49.830;8.748;2023-03-01T12:52:22;15.20;21.00
6627;DHT22;3349;49.830;8.748;2023-03-01T12:54:54;14.00;22.00
6627;DHT22;3349;49.830;8.748;2023-03-01T12:57:27;12.90;22.50
6627;DHT22;3349;49.830;8.748;2023-03-01T13:00:17;12.10;23.40
6627;DHT22;3349;49.830;8.748;2023-03-01T13:02:51;10.90;24.90
6627;DHT22;3349;49.830;8.748;2023-03-01T13:05:34;10.50;25.90
6627;DHT22;3349;49.830;8.748;2023-03-01T13:08:13;10.10;26.60
6627;DHT22;3349;49.830;8.748;2023-03-01T13:10:46;9.90;27.20
6627;DHT22;3349;49.830;8.748;2023-03-01T13:13:19;9.90;27.60
6627;DHT22;3349;49.830;8.748;2023-03-01T13:15:47;9.90;28.60
6627;DHT22;3349;49.830;8.748;2023-03-01T13:18:30;9.80;28.20
6627;DHT22;3349;49.830;8.748;2023-03-01T13:21:02;9.70;28.30
6627;DHT22;3349;49.830;8.748;2023-03-01T13:23:33;9.60;28.10
6627;DHT22;3349;49.830;8.748;2023-03-01T13:26:09;9.40;28.50
6627;DHT22;3349;49.830;8.748;2023-03-01T13:29:02;9.20;29.00
6627;DHT22;3349;49.830;8.748;2023-03-01T13:31:59;9.10;29.60
6627;DHT22;3349;49.830;8.748;2023-03-01T13:34:40;8.90;29.40
6627;DHT22;3349;49.830;8.748;2023-03-01T13:37:20;8.80;29.20
6627;DHT22;3349;49.830;8.748;2023-03-01T13:39:47;8.70;29.70
6627;DHT22;3349;49.830;8.748;2023-03-01T13:42:39;8.70;29.10
6627;DHT22;3349;49.830;8.748;2023-03-01T13:45:36;8.60;30.00
6627;DHT22;3349;49.830;8.748;2023-03-01T13:48:09;8.60;30.90
6627;DHT22;3349;49.830;8.748;2023-03-01T13:50:45;8.60;30.00
6627;DHT22;3349;49.830;8.748;2023-03-01T13:53:17;8.50;29.50
6627;DHT22;3349;49.830;8.748;2023-03-01T13:55:46;8.50;29.70
6627;DHT22;3349;49.830;8.748;2023-03-01T13:58:19;8.50;30.30
6627;DHT22;3349;49.830;8.748;2023-03-01T14:00:55;8.40;29.50
6627;DHT22;3349;49.830;8.748;2023-03-01T14:03:22;8.40;29.90
6627;DHT22;3349;49.830;8.748;2023-03-01T14:06:06;8.30;29.90
6627;DHT22;3349;49.830;8.748;2023-03-01T14:08:35;8.30;29.70
6627;DHT22;3349;49.830;8.748;2023-03-01T14:14:29;8.30;29.90
6627;DHT22;3349;49.830;8.748;2023-03-01T14:17:06;8.40;31.30
6627;DHT22;3349;49.830;8.748;2023-03-01T14:19:36;8.40;30.20
6627;DHT22;3349;49.830;8.748;2023-03-01T14:22:21;8.50;30.10
6627;DHT22;3349;49.830;8.748;2023-03-01T14:24:51;8.70;29.30
6627;DHT22;3349;49.830;8.748;2023-03-01T14:27:19;8.80;29.20
6627;DHT22;3349;49.830;8.748;2023-03-01T14:29:54;8.90;29.00
6627;DHT22;3349;49.830;8.748;2023-03-01T14:32:25;8.90;28.90
6627;DHT22;3349;49.830;8.748;2023-03-01T14:34:52;8.90;29.00
6627;DHT22;3349;49.830;8.748;2023-03-01T14:37:21;9.00;29.20
6627;DHT22;3349;49.830;8.748;2023-03-01T14:39:49;9.10;29.10
6627;DHT22;3349;49.830;8.748;2023-03-01T14:42:17;9.30;28.70
6627;DHT22;3349;49.830;8.748;2023-03-01T14:44:48;9.60;28.40
6627;DHT22;3349;49.830;8.748;2023-03-01T14:47:21;10.00;27.80
6627;DHT22;3349;49.830;8.748;2023-03-01T14:49:56;10.30;27.20
6627;DHT22;3349;49.830;8.748;2023-03-01T14:52:28;10.70;26.60
6627;DHT22;3349;49.830;8.748;2023-03-01T14:54:59;10.80;26.50
6627;DHT22;3349;49.830;8.748;2023-03-01T14:57:28;10.90;26.50
6627;DHT22;3349;49.830;8.748;2023-03-01T14:59:57;10.50;27.20
6627;DHT22;3349;49.830;8.748;2023-03-01T15:02:26;10.20;27.80
6627;DHT22;3349;49.830;8.748;2023-03-01T15:04:58;9.80;29.00
6627;DHT22;3349;49.830;8.748;2023-03-01T15:07:29;9.60;29.30
6627;DHT22;3349;49.830;8.748;2023-03-01T15:09:57;9.10;29.80
6627;DHT22;3349;49.830;8.748;2023-03-01T15:12:35;9.00;30.30
6627;DHT22;3349;49.830;8.748;2023-03-01T15:15:20;8.90;30.90
6627;DHT22;3349;49.830;8.748;2023-03-01T15:17:52;8.80;31.60
6627;DHT22;3349;49.830;8.748;2023-03-01T15:20:24;8.70;31.50
6627;DHT22;3349;49.830;8.748;2023-03-01T15:22:53;8.70;31.50
6627;DHT22;3349;49.830;8.748;2023-03-01T15:25:22;8.70;31.50
6627;DHT22;3349;49.830;8.748;2023-03-01T15:27:51;8.60;31.40
6627;DHT22;3349;49.830;8.748;2023-03-01T15:30:21;8.40;32.20
6627;DHT22;3349;49.830;8.748;2023-03-01T15:32:48;8.50;32.50
6627;DHT22;3349;49.830;8.748;2023-03-01T15:35:40;8.40;32.30
6627;DHT22;3349;49.830;8.748;2023-03-01T15:38:24;8.30;32.60
6627;DHT22;3349;49.830;8.748;2023-03-01T15:40:52;8.30;33.30
6627;DHT22;3349;49.830;8.748;2023-03-01T15:43:37;8.30;33.60
6627;DHT22;3349;49.830;8.748;2023-03-01T15:46:04;8.20;33.60
6627;DHT22;3349;49.830;8.748;2023-03-01T15:48:31;8.20;33.80
6627;DHT22;3349;49.830;8.748;2023-03-01T15:51:00;8.30;33.40
6627;DHT22;3349;49.830;8.748;2023-03-01T15:53:27;8.20;33.60
6627;DHT22;3349;49.830;8.748;2023-03-01T15:55:54;8.10;33.80
6627;DHT22;3349;49.830;8.748;2023-03-01T15:58:23;8.10;33.70
6627;DHT22;3349;49.830;8.748;2023-03-01T16:00:51;8.00;34.10
6627;DHT22;3349;49.830;8.748;2023-03-01T16:03:22;8.00;34.10
6627;DHT22;3349;49.830;8.748;2023-03-01T16:05:49;8.00;34.40
6627;DHT22;3349;49.830;8.748;2023-03-01T16:08:18;8.00;34.10
6627;DHT22;3349;49.830;8.748;2023-03-01T16:10:46;8.00;34.30
6627;DHT22;3349;49.830;8.748;2023-03-01T16:13:15;8.10;34.20
6627;DHT22;3349;49.830;8.748;2023-03-01T16:15:42;8.20;34.10
6627;DHT22;3349;49.830;8.748;2023-03-01T16:18:09;8.40;34.10
6627;DHT22;3349;49.830;8.748;2023-03-01T16:20:37;8.50;33.30
6627;DHT22;3349;49.830;8.748;2023-03-01T16:23:05;8.70;33.00
6627;DHT22;3349;49.830;8.748;2023-03-01T16:25:35;8.80;33.00
6627;DHT22;3349;49.830;8.748;2023-03-01T16:28:02;8.80;32.80
6627;DHT22;3349;49.830;8.748;2023-03-01T16:30:34;8.70;32.90
6627;DHT22;3349;49.830;8.748;2023-03-01T16:33:01;8.80;32.90
6627;DHT22;3349;49.830;8.748;2023-03-01T16:35:28;8.60;32.80
6627;DHT22;3349;49.830;8.748;2023-03-01T16:37:54;8.50;33.30
6627;DHT22;3349;49.830;8.748;2023-03-01T16:40:23;8.20;34.00
6627;DHT22;3349;49.830;8.748;2023-03-01T16:42:53;7.90;34.30